sensor_id;sensor_type;location;lat;lon;timestamp;pressure;altitude;pressure_sealevel;temperature;humidity
75886;BME280;64561;44.018;10.144;2023-08-20T00:01:45;101598.63;;;25.44;69.80
75886;BME280;64561;44.018;10.144;2023-08-20T00:04:12;101595.19;;;25.42;70.15
75886;BME280;64561;44.018;10.144;2023-08-20T00:06:40;101596.00;;;25.45;69.86
75886;BME280;64561;44.018;10.144;2023-08-20T00:09:09;101595.03;;;25.48;69.85
75886;BME280;64561;44.018;10.144;2023-08-20T00:11:36;101595.91;;;25.48;69.61
75886;BME280;64561;44.018;10.144;2023-08-20T00:14:04;101591.69;;;25.43;70.00
75886;BME280;64561;44.018;10.144;2023-08-20T00:16:31;101596.97;;;25.41;69.72
75886;BME280;64561;44.018;10.144;2023-08-20T00:18:58;101590.16;;;25.34;69.59
75886;BME280;64561;44.018;10.144;2023-08-20T00:21:26;101597.13;;;25.35;70.14
75886;BME280;64561;44.018;10.144;2023-08-20T00:23:55;101595.41;;;25.34;70.00
75886;BME280;64561;44.018;10.144;2023-08-20T00:26:22;101594.50;;;25.35;70.14
75886;BME280;64561;44.018;10.144;2023-08-20T00:28:50;101590.19;;;25.32;70.39
75886;BME280;64561;44.018;10.144;2023-08-20T00:31:17;101594.72;;;25.26;70.06
75886;BME280;64561;44.018;10.144;2023-08-20T00:33:44;101587.09;;;25.17;70.40
75886;BME280;64561;44.018;10.144;2023-08-20T00:36:31;101583.75;;;25.08;70.60
75886;BME280;64561;44.018;10.144;2023-08-20T00:38:58;101588.97;;;25.10;70.72
75886;BME280;64561;44.018;10.144;2023-08-20T00:41:26;101590.66;;;25.13;71.05
75886;BME280;64561;44.018;10.144;2023-08-20T00:43:53;101590.69;;;25.11;70.37
75886;BME280;64561;44.018;10.144;2023-08-20T00:46:20;101594.22;;;25.10;70.77
75886;BME280;64561;44.018;10.144;2023-08-20T00:48:49;101583.03;;;25.03;70.84
75886;BME280;64561;44.018;10.144;2023-08-20T00:51:17;101586.38;;;25.08;70.77
75886;BME280;64561;44.018;10.144;2023-08-20T00:53:45;101588.16;;;25.08;70.95
75886;BME280;64561;44.018;10.144;2023-08-20T00:56:12;101588.97;;;25.10;70.85
75886;BME280;64561;44.018;10.144;2023-08-20T00:58:40;101586.44;;;25.05;70.72
75886;BME280;64561;44.018;10.144;2023-08-20T01:01:07;101596.13;;;25.03;71.07
75886;BME280;64561;44.018;10.144;2023-08-20T01:03:34;101592.63;;;25.03;70.68
75886;BME280;64561;44.018;10.144;2023-08-20T01:11:59;101601.53;;;24.96;71.44
75886;BME280;64561;44.018;10.144;2023-08-20T01:14:26;101606.00;;;24.91;71.61
75886;BME280;64561;44.018;10.144;2023-08-20T01:16:53;101609.59;;;24.86;71.58
75886;BME280;64561;44.018;10.144;2023-08-20T01:19:22;101607.91;;;24.84;71.71
75886;BME280;64561;44.018;10.144;2023-08-20T01:30:15;101610.53;;;24.84;71.66
75886;BME280;64561;44.018;10.144;2023-08-20T01:32:43;101607.00;;;24.86;71.75
75886;BME280;64561;44.018;10.144;2023-08-20T01:35:14;101607.84;;;24.87;71.50
75886;BME280;64561;44.018;10.144;2023-08-20T01:37:43;101604.34;;;24.88;71.60
75886;BME280;64561;44.018;10.144;2023-08-20T01:40:10;101610.44;;;24.89;71.53
75886;BME280;64561;44.018;10.144;2023-08-20T01:42:38;101605.28;;;24.85;71.65
75886;BME280;64561;44.018;10.144;2023-08-20T01:45:06;101607.00;;;24.86;71.46
75886;BME280;64561;44.018;10.144;2023-08-20T01:47:34;101604.38;;;24.85;71.39
75886;BME280;64561;44.018;10.144;2023-08-20T01:50:02;101603.50;;;24.86;71.31
75886;BME280;64561;44.018;10.144;2023-08-20T01:52:33;101612.22;;;24.86;71.27
75886;BME280;64561;44.018;10.144;2023-08-20T01:55:00;101609.63;;;24.85;71.40
75886;BME280;64561;44.018;10.144;2023-08-20T01:57:28;101607.06;;;24.83;71.28
75886;BME280;64561;44.018;10.144;2023-08-20T01:59:56;101612.50;;;24.74;70.92
75886;BME280;64561;44.018;10.144;2023-08-20T02:02:23;101609.09;;;24.71;70.66
75886;BME280;64561;44.018;10.144;2023-08-20T02:04:51;101603.09;;;24.66;71.06
75886;BME280;64561;44.018;10.144;2023-08-20T02:07:18;101611.00;;;24.64;71.32
75886;BME280;64561;44.018;10.144;2023-08-20T02:09:45;101608.41;;;24.62;71.21
75886;BME280;64561;44.018;10.144;2023-08-20T02:12:12;101617.19;;;24.60;71.40
75886;BME280;64561;44.018;10.144;2023-08-20T02:14:39;101610.19;;;24.60;71.52
75886;BME280;64561;44.018;10.144;2023-08-20T02:17:07;101610.25;;;24.57;72.14
75886;BME280;64561;44.018;10.144;2023-08-20T02:19:35;101623.19;;;24.63;72.16
75886;BME280;64561;44.018;10.144;2023-08-20T02:22:02;101618.91;;;24.61;72.45
75886;BME280;64561;44.018;10.144;2023-08-20T02:24:30;101621.56;;;24.58;72.74
75886;BME280;64561;44.018;10.144;2023-08-20T02:26:57;101616.31;;;24.61;72.48
75886;BME280;64561;44.018;10.144;2023-08-20T02:29:24;101625.88;;;24.60;72.17
75886;BME280;64561;44.018;10.144;2023-08-20T02:31:51;101617.22;;;24.58;72.23
75886;BME280;64561;44.018;10.144;2023-08-20T02:34:18;101626.78;;;24.59;72.41
75886;BME280;64561;44.018;10.144;2023-08-20T02:36:46;101619.13;;;24.50;72.52
75886;BME280;64561;44.018;10.144;2023-08-20T02:39:15;101626.16;;;24.48;72.41
75886;BME280;64561;44.018;10.144;2023-08-20T02:41:43;101617.50;;;24.46;72.70
75886;BME280;64561;44.018;10.144;2023-08-20T02:44:11;101627.00;;;24.49;72.57
75886;BME280;64561;44.018;10.144;2023-08-20T02:46:38;101627.00;;;24.50;73.11
75886;BME280;64561;44.018;10.144;2023-08-20T02:49:05;101618.31;;;24.48;72.92
75886;BME280;64561;44.018;10.144;2023-08-20T02:51:32;101629.59;;;24.50;73.02
75886;BME280;64561;44.018;10.144;2023-08-20T02:53:59;101630.47;;;24.51;72.61
75886;BME280;64561;44.018;10.144;2023-08-20T02:56:26;101634.91;;;24.47;72.84
75886;BME280;64561;44.018;10.144;2023-08-20T02:58:53;101631.44;;;24.45;72.54
75886;BME280;64561;44.018;10.144;2023-08-20T03:01:22;101630.66;;;24.43;72.94
75886;BME280;64561;44.018;10.144;2023-08-20T03:03:51;101635.91;;;24.40;72.60
75886;BME280;64561;44.018;10.144;2023-08-20T03:06:18;101633.34;;;24.37;72.33
75886;BME280;64561;44.018;10.144;2023-08-20T03:08:45;101622.06;;;24.33;72.57
75886;BME280;64561;44.018;10.144;2023-08-20T03:11:12;101616.97;;;24.27;72.74
75886;BME280;64561;44.018;10.144;2023-08-20T03:13:40;101627.41;;;24.29;72.47
75886;BME280;64561;44.018;10.144;2023-08-20T03:16:07;101621.41;;;24.24;72.96
75886;BME280;64561;44.018;10.144;2023-08-20T03:18:34;101628.47;;;24.18;73.16
75886;BME280;64561;44.018;10.144;2023-08-20T03:21:01;101621.63;;;24.11;73.59
75886;BME280;64561;44.018;10.144;2023-08-20T03:23:29;101622.47;;;24.13;73.31
75886;BME280;64561;44.018;10.144;2023-08-20T03:25:59;101620.75;;;24.12;73.40
75886;BME280;64561;44.018;10.144;2023-08-20T03:28:27;101623.28;;;24.15;73.43
75886;BME280;64561;44.018;10.144;2023-08-20T03:30:54;101626.75;;;24.17;73.65
75886;BME280;64561;44.018;10.144;2023-08-20T03:33:26;101617.22;;;24.15;73.26
75886;BME280;64561;44.018;10.144;2023-08-20T03:35:53;101617.25;;;24.13;73.47
75886;BME280;64561;44.018;10.144;2023-08-20T03:38:24;101618.00;;;24.18;73.50
75886;BME280;64561;44.018;10.144;2023-08-20T03:40:55;101618.91;;;24.17;73.27
75886;BME280;64561;44.018;10.144;2023-08-20T03:43:22;101617.19;;;24.16;73.39
75886;BME280;64561;44.018;10.144;2023-08-20T03:45:53;101604.25;;;24.09;73.53
75886;BME280;64561;44.018;10.144;2023-08-20T03:48:20;101606.84;;;24.10;73.32
75886;BME280;64561;44.018;10.144;2023-08-20T03:50:48;101619.69;;;24.21;73.25
75886;BME280;64561;44.018;10.144;2023-08-20T03:53:15;101626.75;;;24.19;73.06
75886;BME280;64561;44.018;10.144;2023-08-20T03:55:47;101614.56;;;24.16;73.34
75886;BME280;64561;44.018;10.144;2023-08-20T03:58:16;101622.38;;;24.18;73.40
75886;BME280;64561;44.018;10.144;2023-08-20T04:00:43;101618.06;;;24.17;73.58
75886;BME280;64561;44.018;10.144;2023-08-20T04:03:11;101619.03;;;24.11;73.43
75886;BME280;64561;44.018;10.144;2023-08-20T04:05:38;101612.22;;;24.03;73.44
75886;BME280;64561;44.018;10.144;2023-08-20T04:08:06;101614.88;;;24.01;73.65
75886;BME280;64561;44.018;10.144;2023-08-20T04:10:34;101621.88;;;23.99;73.66
75886;BME280;64561;44.018;10.144;2023-08-20T04:13:01;101618.38;;;24.00;73.83
75886;BME280;64561;44.018;10.144;2023-08-20T04:15:28;101618.44;;;23.97;73.90
75886;BME280;64561;44.018;10.144;2023-08-20T04:17:56;101625.41;;;23.96;73.75
75886;BME280;64561;44.018;10.144;2023-08-20T04:20:23;101622.84;;;23.95;74.44
75886;BME280;64561;44.018;10.144;2023-08-20T04:22:50;101628.19;;;23.87;74.26
75886;BME280;64561;44.018;10.144;2023-08-20T04:25:17;101628.31;;;23.83;74.23
75886;BME280;64561;44.018;10.144;2023-08-20T04:27:45;101625.78;;;23.77;74.45
75886;BME280;64561;44.018;10.144;2023-08-20T04:30:12;101629.34;;;23.72;75.05
75886;BME280;64561;44.018;10.144;2023-08-20T04:32:39;101632.84;;;23.71;74.82
75886;BME280;64561;44.018;10.144;2023-08-20T04:35:08;101632.84;;;23.71;74.66
75886;BME280;64561;44.018;10.144;2023-08-20T04:37:36;101628.44;;;23.73;74.46
75886;BME280;64561;44.018;10.144;2023-08-20T04:40:04;101632.94;;;23.65;75.09
75886;BME280;64561;44.018;10.144;2023-08-20T04:42:31;101632.00;;;23.71;74.49
75886;BME280;64561;44.018;10.144;2023-08-20T04:44:59;101632.81;;;23.73;74.69
75886;BME280;64561;44.018;10.144;2023-08-20T04:47:30;101634.56;;;23.72;74.92
75886;BME280;64561;44.018;10.144;2023-08-20T04:49:57;101636.22;;;23.77;75.03
75886;BME280;64561;44.018;10.144;2023-08-20T04:52:25;101632.69;;;23.81;75.14
75886;BME280;64561;44.018;10.144;2023-08-20T04:54:52;101636.94;;;23.86;74.75
75886;BME280;64561;44.018;10.144;2023-08-20T04:57:30;101640.41;;;23.87;74.58
75886;BME280;64561;44.018;10.144;2023-08-20T04:59:57;101642.19;;;23.85;74.50
75886;BME280;64561;44.018;10.144;2023-08-20T05:02:45;101646.59;;;23.83;74.62
75886;BME280;64561;44.018;10.144;2023-08-20T05:05:15;101644.81;;;23.85;74.31
75886;BME280;64561;44.018;10.144;2023-08-20T05:07:43;101646.53;;;23.86;74.33
75886;BME280;64561;44.018;10.144;2023-08-20T05:10:11;101646.50;;;23.89;74.47
75886;BME280;64561;44.018;10.144;2023-08-20T05:12:38;101654.22;;;23.93;75.00
75886;BME280;64561;44.018;10.144;2023-08-20T05:15:06;101652.53;;;23.92;74.90
75886;BME280;64561;44.018;10.144;2023-08-20T05:17:33;101660.31;;;23.94;74.86
75886;BME280;64561;44.018;10.144;2023-08-20T05:20:01;101656.03;;;23.90;75.69
75886;BME280;64561;44.018;10.144;2023-08-20T05:22:29;101655.94;;;23.94;75.26
75886;BME280;64561;44.018;10.144;2023-08-20T05:24:57;101655.09;;;23.94;75.52
75886;BME280;64561;44.018;10.144;2023-08-20T05:27:24;101667.28;;;23.95;75.44
75886;BME280;64561;44.018;10.144;2023-08-20T05:29:51;101657.69;;;23.94;75.65
75886;BME280;64561;44.018;10.144;2023-08-20T05:32:19;101660.31;;;23.94;76.07
75886;BME280;64561;44.018;10.144;2023-08-20T05:34:47;101662.13;;;23.92;76.54
75886;BME280;64561;44.018;10.144;2023-08-20T05:37:14;101655.16;;;23.91;76.40
75886;BME280;64561;44.018;10.144;2023-08-20T05:39:42;101663.84;;;23.93;76.95
75886;BME280;64561;44.018;10.144;2023-08-20T05:42:11;101666.34;;;23.99;76.24
75886;BME280;64561;44.018;10.144;2023-08-20T05:44:42;101662.69;;;24.06;76.28
75886;BME280;64561;44.018;10.144;2023-08-20T05:47:13;101668.66;;;24.16;76.22
75886;BME280;64561;44.018;10.144;2023-08-20T05:49:41;101665.03;;;24.22;76.58
75886;BME280;64561;44.018;10.144;2023-08-20T05:52:09;101662.28;;;24.28;76.36
75886;BME280;64561;44.018;10.144;2023-08-20T05:54:39;101661.28;;;24.35;75.87
75886;BME280;64561;44.018;10.144;2023-08-20T05:57:06;101669.78;;;24.48;75.07
75886;BME280;64561;44.018;10.144;2023-08-20T05:59:33;101664.28;;;24.61;74.58
75886;BME280;64561;44.018;10.144;2023-08-20T06:02:01;101666.75;;;24.68;75.04
75886;BME280;64561;44.018;10.144;2023-08-20T06:04:29;101661.34;;;24.75;75.28
75886;BME280;64561;44.018;10.144;2023-08-20T06:06:56;101672.59;;;24.80;75.96
75886;BME280;64561;44.018;10.144;2023-08-20T06:09:24;101669.03;;;24.83;75.64
75886;BME280;64561;44.018;10.144;2023-08-20T06:11:51;101673.31;;;24.87;74.10
75886;BME280;64561;44.018;10.144;2023-08-20T06:14:18;101673.22;;;24.92;73.06
75886;BME280;64561;44.018;10.144;2023-08-20T06:16:45;101669.59;;;24.97;72.86
75886;BME280;64561;44.018;10.144;2023-08-20T06:19:12;101669.47;;;25.03;73.13
75886;BME280;64561;44.018;10.144;2023-08-20T06:21:39;101670.19;;;25.08;73.42
75886;BME280;64561;44.018;10.144;2023-08-20T06:24:06;101671.88;;;25.13;73.86
75886;BME280;64561;44.018;10.144;2023-08-20T06:26:34;101684.88;;;25.19;73.70
75886;BME280;64561;44.018;10.144;2023-08-20T06:29:01;101673.41;;;25.23;73.84
75886;BME280;64561;44.018;10.144;2023-08-20T06:31:28;101669.72;;;25.30;74.18
75886;BME280;64561;44.018;10.144;2023-08-20T06:33:56;101687.91;;;25.38;73.98
75886;BME280;64561;44.018;10.144;2023-08-20T06:36:23;101677.31;;;25.42;74.59
75886;BME280;64561;44.018;10.144;2023-08-20T06:38:50;101689.31;;;25.51;74.62
75886;BME280;64561;44.018;10.144;2023-08-20T06:41:17;101676.88;;;25.59;74.05
75886;BME280;64561;44.018;10.144;2023-08-20T06:43:45;101685.44;;;25.67;73.82
75886;BME280;64561;44.018;10.144;2023-08-20T06:46:12;101681.81;;;25.73;73.96
75886;BME280;64561;44.018;10.144;2023-08-20T06:48:39;101691.22;;;25.80;73.98
75886;BME280;64561;44.018;10.144;2023-08-20T06:51:13;101680.50;;;25.89;73.65
75886;BME280;64561;44.018;10.144;2023-08-20T06:53:40;101680.34;;;25.95;74.20
75886;BME280;64561;44.018;10.144;2023-08-20T06:56:08;101682.88;;;26.00;73.19
75886;BME280;64561;44.018;10.144;2023-08-20T06:58:36;101678.41;;;26.04;73.68
75886;BME280;64561;44.018;10.144;2023-08-20T07:01:03;101687.00;;;26.09;73.31
75886;BME280;64561;44.018;10.144;2023-08-20T07:03:40;101686.09;;;26.10;73.23
75886;BME280;64561;44.018;10.144;2023-08-20T07:06:09;101687.69;;;26.15;72.46
75886;BME280;64561;44.018;10.144;2023-08-20T07:08:37;101687.47;;;26.23;72.21
75886;BME280;64561;44.018;10.144;2023-08-20T07:11:06;101679.41;;;26.31;71.36
75886;BME280;64561;44.018;10.144;2023-08-20T07:13:34;101678.50;;;26.32;70.82
75886;BME280;64561;44.018;10.144;2023-08-20T07:16:01;101674.75;;;26.40;71.35
75886;BME280;64561;44.018;10.144;2023-08-20T07:18:29;101681.72;;;26.41;71.51
75886;BME280;64561;44.018;10.144;2023-08-20T07:20:56;101678.88;;;26.51;71.42
75886;BME280;64561;44.018;10.144;2023-08-20T07:23:24;101669.94;;;26.56;70.87
75886;BME280;64561;44.018;10.144;2023-08-20T07:25:52;101678.53;;;26.63;70.59
75886;BME280;64561;44.018;10.144;2023-08-20T07:28:30;101685.31;;;26.68;70.63
75886;BME280;64561;44.018;10.144;2023-08-20T07:31:19;101693.91;;;26.75;69.99
75886;BME280;64561;44.018;10.144;2023-08-20T07:33:48;101691.13;;;26.80;70.53
75886;BME280;64561;44.018;10.144;2023-08-20T07:36:15;101685.78;;;26.83;69.75
75886;BME280;64561;44.018;10.144;2023-08-20T07:38:43;101689.13;;;26.88;70.03
75886;BME280;64561;44.018;10.144;2023-08-20T07:41:11;101689.63;;;27.01;70.38
75886;BME280;64561;44.018;10.144;2023-08-20T07:43:40;101693.78;;;27.08;70.13
75886;BME280;64561;44.018;10.144;2023-08-20T07:46:09;101690.97;;;27.14;69.88
75886;BME280;64561;44.018;10.144;2023-08-20T07:48:36;101695.97;;;27.23;67.42
75886;BME280;64561;44.018;10.144;2023-08-20T07:51:04;101694.09;;;27.27;67.01
75886;BME280;64561;44.018;10.144;2023-08-20T07:53:31;101700.19;;;27.29;66.34
75886;BME280;64561;44.018;10.144;2023-08-20T07:56:00;101699.06;;;27.36;66.00
75886;BME280;64561;44.018;10.144;2023-08-20T07:58:28;101703.19;;;27.43;66.03
75886;BME280;64561;44.018;10.144;2023-08-20T08:00:57;101705.81;;;27.43;65.20
75886;BME280;64561;44.018;10.144;2023-08-20T08:03:25;101711.56;;;27.56;66.25
75886;BME280;64561;44.018;10.144;2023-08-20T08:05:56;101699.75;;;27.68;65.86
75886;BME280;64561;44.018;10.144;2023-08-20T08:08:23;101702.72;;;27.85;62.90
75886;BME280;64561;44.018;10.144;2023-08-20T08:10:50;101703.56;;;27.86;63.42
75886;BME280;64561;44.018;10.144;2023-08-20T08:13:20;101704.34;;;27.89;64.13
75886;BME280;64561;44.018;10.144;2023-08-20T08:15:48;101706.75;;;27.95;64.76
75886;BME280;64561;44.018;10.144;2023-08-20T08:18:16;101703.09;;;27.99;64.51
75886;BME280;64561;44.018;10.144;2023-08-20T08:20:43;101701.09;;;28.06;63.95
75886;BME280;64561;44.018;10.144;2023-08-20T08:23:11;101710.22;;;28.21;63.59
75886;BME280;64561;44.018;10.144;2023-08-20T08:25:39;101705.38;;;28.34;63.48
75886;BME280;64561;44.018;10.144;2023-08-20T08:28:06;101699.03;;;28.41;61.49
75886;BME280;64561;44.018;10.144;2023-08-20T08:30:33;101700.72;;;28.42;60.36
75886;BME280;64561;44.018;10.144;2023-08-20T08:33:01;101696.41;;;28.41;60.07
75886;BME280;64561;44.018;10.144;2023-08-20T08:35:29;101696.09;;;28.48;57.71
75886;BME280;64561;44.018;10.144;2023-08-20T08:37:56;101689.97;;;28.48;57.30
75886;BME280;64561;44.018;10.144;2023-08-20T08:40:28;101695.84;;;28.55;56.03
75886;BME280;64561;44.018;10.144;2023-08-20T08:42:57;101700.91;;;28.61;54.43
75886;BME280;64561;44.018;10.144;2023-08-20T08:45:26;101703.94;;;28.74;54.27
75886;BME280;64561;44.018;10.144;2023-08-20T08:47:54;101700.22;;;28.79;53.26
75886;BME280;64561;44.018;10.144;2023-08-20T08:50:22;101694.53;;;28.90;52.17
75886;BME280;64561;44.018;10.144;2023-08-20T08:52:51;101702.06;;;28.99;52.12
75886;BME280;64561;44.018;10.144;2023-08-20T08:55:19;101687.88;;;29.03;51.24
75886;BME280;64561;44.018;10.144;2023-08-20T08:57:47;101696.34;;;29.11;50.95
75886;BME280;64561;44.018;10.144;2023-08-20T09:00:14;101700.41;;;29.20;51.82
75886;BME280;64561;44.018;10.144;2023-08-20T09:02:42;101701.06;;;29.25;51.66
75886;BME280;64561;44.018;10.144;2023-08-20T09:05:09;101698.44;;;29.25;52.92
75886;BME280;64561;44.018;10.144;2023-08-20T09:07:42;101700.25;;;29.45;53.67
75886;BME280;64561;44.018;10.144;2023-08-20T09:10:09;101696.31;;;29.55;53.04
75886;BME280;64561;44.018;10.144;2023-08-20T09:12:37;101691.03;;;29.55;52.27
75886;BME280;64561;44.018;10.144;2023-08-20T09:15:10;101691.66;;;29.62;52.43
75886;BME280;64561;44.018;10.144;2023-08-20T09:17:37;101693.13;;;29.69;51.66
75886;BME280;64561;44.018;10.144;2023-08-20T09:20:05;101692.81;;;29.77;52.38
75886;BME280;64561;44.018;10.144;2023-08-20T09:22:34;101694.47;;;29.79;51.50
75886;BME280;64561;44.018;10.144;2023-08-20T09:25:01;101690.69;;;29.85;51.25
75886;BME280;64561;44.018;10.144;2023-08-20T09:27:38;101692.22;;;29.91;51.66
75886;BME280;64561;44.018;10.144;2023-08-20T09:30:07;101689.09;;;30.01;50.48
75886;BME280;64561;44.018;10.144;2023-08-20T09:32:34;101688.97;;;30.04;50.87
75886;BME280;64561;44.018;10.144;2023-08-20T09:35:01;101683.75;;;30.03;50.50
75886;BME280;64561;44.018;10.144;2023-08-20T09:37:29;101679.91;;;30.10;50.14
75886;BME280;64561;44.018;10.144;2023-08-20T09:39:56;101683.53;;;30.07;48.90
75886;BME280;64561;44.018;10.144;2023-08-20T09:42:25;101686.91;;;30.11;49.50
75886;BME280;64561;44.018;10.144;2023-08-20T09:44:56;101679.59;;;30.18;48.47
75886;BME280;64561;44.018;10.144;2023-08-20T09:47:25;101676.72;;;30.24;49.57
75886;BME280;64561;44.018;10.144;2023-08-20T09:49:53;101677.72;;;30.20;49.05
75886;BME280;64561;44.018;10.144;2023-08-20T09:52:39;101687.44;;;30.19;49.55
75886;BME280;64561;44.018;10.144;2023-08-20T09:55:17;101679.47;;;30.21;49.69
75886;BME280;64561;44.018;10.144;2023-08-20T09:57:48;101683.75;;;30.23;51.19
75886;BME280;64561;44.018;10.144;2023-08-20T10:00:15;101680.91;;;30.28;51.42
75886;BME280;64561;44.018;10.144;2023-08-20T10:02:45;101687.13;;;30.27;50.53
75886;BME280;64561;44.018;10.144;2023-08-20T10:05:12;101685.06;;;30.34;52.84
75886;BME280;64561;44.018;10.144;2023-08-20T10:07:42;101688.78;;;30.48;50.29
75886;BME280;64561;44.018;10.144;2023-08-20T10:10:10;101682.50;;;30.51;50.15
75886;BME280;64561;44.018;10.144;2023-08-20T10:12:40;101685.06;;;30.52;51.26
75886;BME280;64561;44.018;10.144;2023-08-20T10:15:10;101679.59;;;30.57;52.23
75886;BME280;64561;44.018;10.144;2023-08-20T10:17:38;101674.56;;;30.70;49.88
75886;BME280;64561;44.018;10.144;2023-08-20T10:20:07;101679.78;;;30.71;51.15
75886;BME280;64561;44.018;10.144;2023-08-20T10:22:42;101681.72;;;30.68;52.21
75886;BME280;64561;44.018;10.144;2023-08-20T10:25:11;101678.44;;;30.63;50.96
75886;BME280;64561;44.018;10.144;2023-08-20T10:27:40;101680.94;;;30.66;51.47
75886;BME280;64561;44.018;10.144;2023-08-20T10:30:25;101673.22;;;30.61;48.83
75886;BME280;64561;44.018;10.144;2023-08-20T10:32:58;101671.22;;;30.66;50.29
75886;BME280;64561;44.018;10.144;2023-08-20T10:38:11;101672.66;;;30.73;51.78
75886;BME280;64561;44.018;10.144;2023-08-20T10:40:54;101668.06;;;30.77;50.26
75886;BME280;64561;44.018;10.144;2023-08-20T10:43:26;101669.28;;;30.70;53.78
75886;BME280;64561;44.018;10.144;2023-08-20T10:46:06;101664.41;;;30.81;51.89
75886;BME280;64561;44.018;10.144;2023-08-20T10:48:38;101664.41;;;30.81;53.45
75886;BME280;64561;44.018;10.144;2023-08-20T10:53:43;101659.16;;;30.80;53.30
75886;BME280;64561;44.018;10.144;2023-08-20T10:56:16;101661.78;;;30.98;53.12
75886;BME280;64561;44.018;10.144;2023-08-20T10:58:46;101658.91;;;31.03;51.85
75886;BME280;64561;44.018;10.144;2023-08-20T11:01:15;101655.44;;;31.03;53.35
75886;BME280;64561;44.018;10.144;2023-08-20T11:03:44;101656.91;;;31.08;53.30
75886;BME280;64561;44.018;10.144;2023-08-20T11:06:12;101646.59;;;31.21;51.72
75886;BME280;64561;44.018;10.144;2023-08-20T11:08:41;101645.91;;;31.35;50.57
75886;BME280;64561;44.018;10.144;2023-08-20T11:11:10;101644.53;;;31.45;50.68
75886;BME280;64561;44.018;10.144;2023-08-20T11:13:37;101643.53;;;31.48;49.31
75886;BME280;64561;44.018;10.144;2023-08-20T11:16:06;101641.50;;;31.35;49.90
75886;BME280;64561;44.018;10.144;2023-08-20T11:18:35;101646.69;;;31.37;50.54
75886;BME280;64561;44.018;10.144;2023-08-20T11:21:02;101635.97;;;31.40;50.06
75886;BME280;64561;44.018;10.144;2023-08-20T11:23:30;101633.16;;;31.43;49.65
75886;BME280;64561;44.018;10.144;2023-08-20T11:25:57;101634.88;;;31.44;48.34
75886;BME280;64561;44.018;10.144;2023-08-20T11:28:26;101628.72;;;31.43;48.51
75886;BME280;64561;44.018;10.144;2023-08-20T11:30:54;101625.91;;;31.47;49.22
75886;BME280;64561;44.018;10.144;2023-08-20T11:33:23;101619.91;;;31.43;49.57
75886;BME280;64561;44.018;10.144;2023-08-20T11:35:51;101626.38;;;31.55;49.83
75886;BME280;64561;44.018;10.144;2023-08-20T11:38:23;101621.13;;;31.71;48.41
75886;BME280;64561;44.018;10.144;2023-08-20T11:40:51;101620.75;;;31.78;49.39
75886;BME280;64561;44.018;10.144;2023-08-20T11:43:18;101615.69;;;31.91;48.92
75886;BME280;64561;44.018;10.144;2023-08-20T11:45:49;101613.16;;;32.05;47.89
75886;BME280;64561;44.018;10.144;2023-08-20T11:48:16;101620.94;;;32.08;47.28
75886;BME280;64561;44.018;10.144;2023-08-20T11:50:44;101616.16;;;32.15;48.14
75886;BME280;64561;44.018;10.144;2023-08-20T11:53:11;101616.25;;;32.14;48.88
75886;BME280;64561;44.018;10.144;2023-08-20T11:55:39;101613.00;;;32.08;48.39
75886;BME280;64561;44.018;10.144;2023-08-20T11:58:10;101617.78;;;32.02;49.76
75886;BME280;64561;44.018;10.144;2023-08-20T12:00:38;101619.03;;;31.95;50.04
75886;BME280;64561;44.018;10.144;2023-08-20T12:03:06;101619.19;;;31.92;49.49
75886;BME280;64561;44.018;10.144;2023-08-20T12:05:34;101613.13;;;31.90;49.49
75886;BME280;64561;44.018;10.144;2023-08-20T12:08:03;101607.34;;;31.99;49.79
75886;BME280;64561;44.018;10.144;2023-08-20T12:10:31;101609.16;;;31.98;49.69
75886;BME280;64561;44.018;10.144;2023-08-20T12:12:59;101606.41;;;32.00;49.25
75886;BME280;64561;44.018;10.144;2023-08-20T12:15:26;101604.94;;;32.10;49.64
75886;BME280;64561;44.018;10.144;2023-08-20T12:18:03;101607.69;;;32.08;49.50
75886;BME280;64561;44.018;10.144;2023-08-20T12:20:35;101599.56;;;31.96;49.79
75886;BME280;64561;44.018;10.144;2023-08-20T12:23:05;101599.09;;;31.87;50.29
75886;BME280;64561;44.018;10.144;2023-08-20T12:25:35;101606.16;;;31.87;50.85
75886;BME280;64561;44.018;10.144;2023-08-20T12:28:03;101600.25;;;31.82;52.47
75886;BME280;64561;44.018;10.144;2023-08-20T12:30:32;101603.84;;;31.98;53.33
75886;BME280;64561;44.018;10.144;2023-08-20T12:33:05;101599.31;;;32.00;51.74
75886;BME280;64561;44.018;10.144;2023-08-20T12:35:33;101604.59;;;32.00;51.76
75886;BME280;64561;44.018;10.144;2023-08-20T12:38:00;101599.81;;;32.07;52.59
75886;BME280;64561;44.018;10.144;2023-08-20T12:40:28;101598.56;;;32.14;51.93
75886;BME280;64561;44.018;10.144;2023-08-20T12:42:56;101593.09;;;32.17;52.75
75886;BME280;64561;44.018;10.144;2023-08-20T12:45:23;101594.19;;;32.13;52.10
75886;BME280;64561;44.018;10.144;2023-08-20T12:47:50;101595.31;;;32.09;51.88
75886;BME280;64561;44.018;10.144;2023-08-20T12:50:17;101586.50;;;32.08;53.24
75886;BME280;64561;44.018;10.144;2023-08-20T12:52:44;101583.69;;;32.11;52.30
75886;BME280;64561;44.018;10.144;2023-08-20T12:55:13;101589.00;;;32.11;53.06
75886;BME280;64561;44.018;10.144;2023-08-20T12:57:57;101587.69;;;32.03;53.93
75886;BME280;64561;44.018;10.144;2023-08-20T13:00:26;101584.25;;;32.01;53.52
75886;BME280;64561;44.018;10.144;2023-08-20T13:02:54;101585.50;;;32.11;53.25
75886;BME280;64561;44.018;10.144;2023-08-20T13:05:23;101581.38;;;32.21;54.86
75886;BME280;64561;44.018;10.144;2023-08-20T13:07:51;101584.88;;;32.22;55.11